sensor_id;sensor_type;location;lat;lon;timestamp;temperature;humidity
38237;DHT22;50101;49.438;11.098;2023-12-07T00:02:03;18.80;52.10
38237;DHT22;50101;49.438;11.098;2023-12-07T00:04:30;18.80;52.20
38237;DHT22;50101;49.438;11.098;2023-12-07T00:06:57;18.70;52.10
38237;DHT22;50101;49.438;11.098;2023-12-07T00:09:24;18.70;52.10
38237;DHT22;50101;49.438;11.098;2023-12-07T00:11:50;18.80;52.20
38237;DHT22;50101;49.438;11.098;2023-12-07T00:14:17;18.80;52.20
38237;DHT22;50101;49.438;11.098;2023-12-07T00:16:44;18.70;51.50
38237;DHT22;50101;49.438;11.098;2023-12-07T00:19:10;18.70;52.10
38237;DHT22;50101;49.438;11.098;2023-12-07T00:21:37;18.70;52.10
38237;DHT22;50101;49.438;11.098;2023-12-07T00:24:04;18.70;52.10
38237;DHT22;50101;49.438;11.098;2023-12-07T00:26:31;18.70;52.10
38237;DHT22;50101;49.438;11.098;2023-12-07T00:29:00;18.70;52.10
38237;DHT22;50101;49.438;11.098;2023-12-07T00:31:27;18.70;52.10
38237;DHT22;50101;49.438;11.098;2023-12-07T00:33:54;18.70;52.10
38237;DHT22;50101;49.438;11.098;2023-12-07T00:36:20;18.70;52.10
38237;DHT22;50101;49.438;11.098;2023-12-07T00:38:47;18.70;51.60
38237;DHT22;50101;49.438;11.098;2023-12-07T00:41:14;18.70;52.20
38237;DHT22;50101;49.438;11.098;2023-12-07T00:43:41;18.60;52.10
38237;DHT22;50101;49.438;11.098;2023-12-07T00:46:08;18.70;52.10
38237;DHT22;50101;49.438;11.098;2023-12-07T00:48:35;18.70;52.10
38237;DHT22;50101;49.438;11.098;2023-12-07T00:51:02;18.70;52.10
38237;DHT22;50101;49.438;11.098;2023-12-07T00:53:29;18.70;52.10
38237;DHT22;50101;49.438;11.098;2023-12-07T00:55:56;18.70;52.10
38237;DHT22;50101;49.438;11.098;2023-12-07T00:58:23;18.70;52.10
38237;DHT22;50101;49.438;11.098;2023-12-07T01:00:51;18.60;52.10
38237;DHT22;50101;49.438;11.098;2023-12-07T01:03:18;18.60;52.10
38237;DHT22;50101;49.438;11.098;2023-12-07T01:05:45;18.60;52.10
38237;DHT22;50101;49.438;11.098;2023-12-07T01:08:12;18.60;52.10
38237;DHT22;50101;49.438;11.098;2023-12-07T01:10:39;18.60;52.10
38237;DHT22;50101;49.438;11.098;2023-12-07T01:13:06;18.60;52.10
38237;DHT22;50101;49.438;11.098;2023-12-07T01:15:32;18.60;52.10
38237;DHT22;50101;49.438;11.098;2023-12-07T01:17:59;18.60;52.10
38237;DHT22;50101;49.438;11.098;2023-12-07T01:20:26;18.60;52.10
38237;DHT22;50101;49.438;11.098;2023-12-07T01:22:53;18.60;52.10
38237;DHT22;50101;49.438;11.098;2023-12-07T01:25:19;18.60;52.10
38237;DHT22;50101;49.438;11.098;2023-12-07T01:27:49;18.60;51.60
38237;DHT22;50101;49.438;11.098;2023-12-07T01:30:16;18.60;52.10
38237;DHT22;50101;49.438;11.098;2023-12-07T01:32:43;18.60;52.10
38237;DHT22;50101;49.438;11.098;2023-12-07T01:35:10;18.50;52.00
38237;DHT22;50101;49.438;11.098;2023-12-07T01:37:37;18.60;52.20
38237;DHT22;50101;49.438;11.098;2023-12-07T01:40:04;18.60;52.10
38237;DHT22;50101;49.438;11.098;2023-12-07T01:42:37;18.60;52.10
38237;DHT22;50101;49.438;11.098;2023-12-07T01:45:07;18.60;52.10
38237;DHT22;50101;49.438;11.098;2023-12-07T01:47:35;18.60;52.10
38237;DHT22;50101;49.438;11.098;2023-12-07T01:50:03;18.50;52.00
38237;DHT22;50101;49.438;11.098;2023-12-07T01:52:31;18.50;52.00
38237;DHT22;50101;49.438;11.098;2023-12-07T01:54:58;18.50;52.00
38237;DHT22;50101;49.438;11.098;2023-12-07T01:57:26;18.50;52.00
38237;DHT22;50101;49.438;11.098;2023-12-07T01:59:53;18.50;52.00
38237;DHT22;50101;49.438;11.098;2023-12-07T02:02:19;18.50;52.00
38237;DHT22;50101;49.438;11.098;2023-12-07T02:04:46;18.50;52.00
38237;DHT22;50101;49.438;11.098;2023-12-07T02:07:13;18.50;51.50
38237;DHT22;50101;49.438;11.098;2023-12-07T02:09:40;18.50;52.10
38237;DHT22;50101;49.438;11.098;2023-12-07T02:12:07;18.50;52.00
38237;DHT22;50101;49.438;11.098;2023-12-07T02:14:34;18.50;52.00
38237;DHT22;50101;49.438;11.098;2023-12-07T02:20:28;18.50;52.00
38237;DHT22;50101;49.438;11.098;2023-12-07T02:23:00;18.50;52.10
38237;DHT22;50101;49.438;11.098;2023-12-07T02:25:57;18.50;52.00
38237;DHT22;50101;49.438;11.098;2023-12-07T02:28:28;18.50;52.00
38237;DHT22;50101;49.438;11.098;2023-12-07T02:30:55;18.50;52.00
38237;DHT22;50101;49.438;11.098;2023-12-07T02:33:22;18.50;52.00
38237;DHT22;50101;49.438;11.098;2023-12-07T02:35:49;18.50;52.00
38237;DHT22;50101;49.438;11.098;2023-12-07T02:38:17;18.50;52.00
38237;DHT22;50101;49.438;11.098;2023-12-07T02:40:46;18.40;52.00
38237;DHT22;50101;49.438;11.098;2023-12-07T02:43:14;18.50;52.10
38237;DHT22;50101;49.438;11.098;2023-12-07T02:45:41;18.50;52.10
38237;DHT22;50101;49.438;11.098;2023-12-07T02:48:08;18.50;52.00
38237;DHT22;50101;49.438;11.098;2023-12-07T02:50:35;18.50;52.10
38237;DHT22;50101;49.438;11.098;2023-12-07T02:53:02;18.40;52.00
38237;DHT22;50101;49.438;11.098;2023-12-07T02:55:28;18.40;52.00
38237;DHT22;50101;49.438;11.098;2023-12-07T02:57:55;18.40;52.00
38237;DHT22;50101;49.438;11.098;2023-12-07T03:00:22;18.40;51.90
38237;DHT22;50101;49.438;11.098;2023-12-07T03:02:49;18.40;51.90
38237;DHT22;50101;49.438;11.098;2023-12-07T03:05:17;18.40;52.60
38237;DHT22;50101;49.438;11.098;2023-12-07T03:07:44;18.40;52.00
38237;DHT22;50101;49.438;11.098;2023-12-07T03:10:10;18.40;52.00
38237;DHT22;50101;49.438;11.098;2023-12-07T03:12:37;18.40;52.00
38237;DHT22;50101;49.438;11.098;2023-12-07T03:15:04;18.40;52.00
38237;DHT22;50101;49.438;11.098;2023-12-07T03:17:31;18.40;52.00
38237;DHT22;50101;49.438;11.098;2023-12-07T03:19:58;18.40;52.00
38237;DHT22;50101;49.438;11.098;2023-12-07T03:22:24;18.40;52.10
38237;DHT22;50101;49.438;11.098;2023-12-07T03:24:52;18.40;52.00
38237;DHT22;50101;49.438;11.098;2023-12-07T03:27:19;18.40;52.00
38237;DHT22;50101;49.438;11.098;2023-12-07T03:29:46;18.40;52.00
38237;DHT22;50101;49.438;11.098;2023-12-07T03:32:13;18.40;52.00
38237;DHT22;50101;49.438;11.098;2023-12-07T03:34:39;18.40;52.00
38237;DHT22;50101;49.438;11.098;2023-12-07T03:37:06;18.40;52.00
38237;DHT22;50101;49.438;11.098;2023-12-07T03:39:33;18.40;52.00
38237;DHT22;50101;49.438;11.098;2023-12-07T03:42:00;18.40;52.00
38237;DHT22;50101;49.438;11.098;2023-12-07T03:44:26;18.40;52.00
38237;DHT22;50101;49.438;11.098;2023-12-07T03:46:54;18.40;52.10
38237;DHT22;50101;49.438;11.098;2023-12-07T03:49:20;18.40;52.10
38237;DHT22;50101;49.438;11.098;2023-12-07T03:51:47;18.40;52.00
38237;DHT22;50101;49.438;11.098;2023-12-07T03:54:15;18.40;52.10
38237;DHT22;50101;49.438;11.098;2023-12-07T03:56:42;18.40;52.10
38237;DHT22;50101;49.438;11.098;2023-12-07T03:59:08;18.40;52.10
38237;DHT22;50101;49.438;11.098;2023-12-07T04:01:35;18.40;52.10
38237;DHT22;50101;49.438;11.098;2023-12-07T04:04:02;18.40;52.10
38237;DHT22;50101;49.438;11.098;2023-12-07T04:06:29;18.40;52.10
38237;DHT22;50101;49.438;11.098;2023-12-07T04:08:56;18.30;52.00
38237;DHT22;50101;49.438;11.098;2023-12-07T04:11:22;18.40;52.10
38237;DHT22;50101;49.438;11.098;2023-12-07T04:13:50;18.30;52.00
38237;DHT22;50101;49.438;11.098;2023-12-07T04:16:17;18.30;52.10
38237;DHT22;50101;49.438;11.098;2023-12-07T04:18:43;18.40;52.10
38237;DHT22;50101;49.438;11.098;2023-12-07T04:21:10;18.30;52.10
38237;DHT22;50101;49.438;11.098;2023-12-07T04:23:37;18.30;52.10
38237;DHT22;50101;49.438;11.098;2023-12-07T04:26:04;18.30;52.10
38237;DHT22;50101;49.438;11.098;2023-12-07T04:28:31;18.30;51.60
38237;DHT22;50101;49.438;11.098;2023-12-07T04:30:57;18.30;52.10
38237;DHT22;50101;49.438;11.098;2023-12-07T04:33:24;18.30;52.20
38237;DHT22;50101;49.438;11.098;2023-12-07T04:35:51;18.30;52.10
38237;DHT22;50101;49.438;11.098;2023-12-07T04:38:18;18.30;52.10
38237;DHT22;50101;49.438;11.098;2023-12-07T04:40:44;18.30;52.10
38237;DHT22;50101;49.438;11.098;2023-12-07T04:43:11;18.30;52.10
38237;DHT22;50101;49.438;11.098;2023-12-07T04:45:38;18.30;52.10
38237;DHT22;50101;49.438;11.098;2023-12-07T04:48:05;18.30;51.60
38237;DHT22;50101;49.438;11.098;2023-12-07T04:50:32;18.30;52.10
38237;DHT22;50101;49.438;11.098;2023-12-07T04:52:58;18.30;52.10
38237;DHT22;50101;49.438;11.098;2023-12-07T04:55:25;18.30;52.10
38237;DHT22;50101;49.438;11.098;2023-12-07T04:57:53;18.40;52.20
38237;DHT22;50101;49.438;11.098;2023-12-07T05:00:20;18.40;52.20
38237;DHT22;50101;49.438;11.098;2023-12-07T05:02:47;18.30;52.20
38237;DHT22;50101;49.438;11.098;2023-12-07T05:05:14;18.40;52.20
38237;DHT22;50101;49.438;11.098;2023-12-07T05:07:41;18.30;52.10
38237;DHT22;50101;49.438;11.098;2023-12-07T05:10:08;18.40;52.20
38237;DHT22;50101;49.438;11.098;2023-12-07T05:12:36;18.40;52.10
38237;DHT22;50101;49.438;11.098;2023-12-07T05:15:03;18.40;52.10
38237;DHT22;50101;49.438;11.098;2023-12-07T05:17:31;18.40;52.10
38237;DHT22;50101;49.438;11.098;2023-12-07T05:19:57;18.40;52.20
38237;DHT22;50101;49.438;11.098;2023-12-07T05:22:24;18.40;52.20
38237;DHT22;50101;49.438;11.098;2023-12-07T05:24:51;18.40;52.20
38237;DHT22;50101;49.438;11.098;2023-12-07T05:27:18;18.40;52.20
38237;DHT22;50101;49.438;11.098;2023-12-07T05:29:45;18.40;52.20
38237;DHT22;50101;49.438;11.098;2023-12-07T05:32:12;18.40;52.20
38237;DHT22;50101;49.438;11.098;2023-12-07T05:34:39;18.40;52.20
38237;DHT22;50101;49.438;11.098;2023-12-07T05:37:05;18.40;52.20
38237;DHT22;50101;49.438;11.098;2023-12-07T05:39:32;18.40;52.10
38237;DHT22;50101;49.438;11.098;2023-12-07T05:41:59;18.50;52.20
38237;DHT22;50101;49.438;11.098;2023-12-07T05:44:26;18.50;52.10
38237;DHT22;50101;49.438;11.098;2023-12-07T05:46:52;18.50;52.10
38237;DHT22;50101;49.438;11.098;2023-12-07T05:49:19;18.50;52.10
38237;DHT22;50101;49.438;11.098;2023-12-07T05:51:49;18.50;52.70
38237;DHT22;50101;49.438;11.098;2023-12-07T05:54:15;18.50;52.10
38237;DHT22;50101;49.438;11.098;2023-12-07T05:56:42;18.50;52.10
38237;DHT22;50101;49.438;11.098;2023-12-07T05:59:09;18.50;52.00
38237;DHT22;50101;49.438;11.098;2023-12-07T06:01:36;18.50;52.00
38237;DHT22;50101;49.438;11.098;2023-12-07T06:04:05;18.50;52.00
38237;DHT22;50101;49.438;11.098;2023-12-07T06:06:32;18.60;52.10
38237;DHT22;50101;49.438;11.098;2023-12-07T06:08:59;18.60;52.10
38237;DHT22;50101;49.438;11.098;2023-12-07T06:11:26;18.60;52.20
38237;DHT22;50101;49.438;11.098;2023-12-07T06:13:52;18.60;52.10
38237;DHT22;50101;49.438;11.098;2023-12-07T06:16:19;18.60;52.10
38237;DHT22;50101;49.438;11.098;2023-12-07T06:18:46;18.60;52.10
38237;DHT22;50101;49.438;11.098;2023-12-07T06:21:14;18.60;52.20
38237;DHT22;50101;49.438;11.098;2023-12-07T06:23:41;18.60;52.20
38237;DHT22;50101;49.438;11.098;2023-12-07T06:26:08;18.60;52.10
38237;DHT22;50101;49.438;11.098;2023-12-07T06:28:35;18.60;51.70
38237;DHT22;50101;49.438;11.098;2023-12-07T06:31:05;18.60;52.20
38237;DHT22;50101;49.438;11.098;2023-12-07T06:33:33;18.70;52.20
38237;DHT22;50101;49.438;11.098;2023-12-07T06:36:01;18.60;52.20
38237;DHT22;50101;49.438;11.098;2023-12-07T06:38:29;18.70;51.70
38237;DHT22;50101;49.438;11.098;2023-12-07T06:40:57;18.70;52.30
38237;DHT22;50101;49.438;11.098;2023-12-07T06:43:24;18.70;52.20
38237;DHT22;50101;49.438;11.098;2023-12-07T06:45:51;18.70;52.30
38237;DHT22;50101;49.438;11.098;2023-12-07T06:48:19;18.70;52.20
38237;DHT22;50101;49.438;11.098;2023-12-07T06:50:46;18.70;52.10
38237;DHT22;50101;49.438;11.098;2023-12-07T06:53:14;18.70;52.10
38237;DHT22;50101;49.438;11.098;2023-12-07T06:55:42;18.80;52.30
38237;DHT22;50101;49.438;11.098;2023-12-07T06:58:11;18.80;52.60
38237;DHT22;50101;49.438;11.098;2023-12-07T07:00:38;18.80;52.70
38237;DHT22;50101;49.438;11.098;2023-12-07T07:03:05;18.90;52.90
38237;DHT22;50101;49.438;11.098;2023-12-07T07:05:32;20.50;54.30
38237;DHT22;50101;49.438;11.098;2023-12-07T07:07:59;18.90;53.00
38237;DHT22;50101;49.438;11.098;2023-12-07T07:10:26;18.90;53.00
38237;DHT22;50101;49.438;11.098;2023-12-07T07:12:53;18.90;53.10
38237;DHT22;50101;49.438;11.098;2023-12-07T07:15:19;18.90;52.70
38237;DHT22;50101;49.438;11.098;2023-12-07T07:17:46;19.00;52.70
38237;DHT22;50101;49.438;11.098;2023-12-07T07:20:13;19.00;52.70
38237;DHT22;50101;49.438;11.098;2023-12-07T07:22:40;19.00;52.70
38237;DHT22;50101;49.438;11.098;2023-12-07T07:25:08;19.00;52.70
38237;DHT22;50101;49.438;11.098;2023-12-07T07:27:35;19.00;52.70
38237;DHT22;50101;49.438;11.098;2023-12-07T07:30:02;19.00;52.70
38237;DHT22;50101;49.438;11.098;2023-12-07T07:32:31;19.10;52.80
38237;DHT22;50101;49.438;11.098;2023-12-07T07:34:57;19.10;52.80
38237;DHT22;50101;49.438;11.098;2023-12-07T07:37:25;19.00;52.30
38237;DHT22;50101;49.438;11.098;2023-12-07T07:39:52;19.00;52.00
38237;DHT22;50101;49.438;11.098;2023-12-07T07:42:19;19.10;52.30
38237;DHT22;50101;49.438;11.098;2023-12-07T07:44:45;19.10;53.10
38237;DHT22;50101;49.438;11.098;2023-12-07T07:47:12;19.10;52.60
38237;DHT22;50101;49.438;11.098;2023-12-07T07:49:39;19.20;52.70
38237;DHT22;50101;49.438;11.098;2023-12-07T07:52:05;19.20;52.90
38237;DHT22;50101;49.438;11.098;2023-12-07T07:54:32;19.20;53.00
38237;DHT22;50101;49.438;11.098;2023-12-07T07:56:59;19.20;52.90
38237;DHT22;50101;49.438;11.098;2023-12-07T07:59:25;19.20;52.90
38237;DHT22;50101;49.438;11.098;2023-12-07T08:01:52;19.20;52.90
38237;DHT22;50101;49.438;11.098;2023-12-07T08:04:19;19.20;52.90
38237;DHT22;50101;49.438;11.098;2023-12-07T08:06:46;19.30;53.00
38237;DHT22;50101;49.438;11.098;2023-12-07T08:09:12;19.30;52.50
38237;DHT22;50101;49.438;11.098;2023-12-07T08:11:39;19.30;53.00
38237;DHT22;50101;49.438;11.098;2023-12-07T08:14:07;19.30;53.00
38237;DHT22;50101;49.438;11.098;2023-12-07T08:16:34;19.30;53.00
38237;DHT22;50101;49.438;11.098;2023-12-07T08:19:01;19.30;53.00
38237;DHT22;50101;49.438;11.098;2023-12-07T08:21:28;19.30;53.00
38237;DHT22;50101;49.438;11.098;2023-12-07T08:23:57;19.30;53.00
38237;DHT22;50101;49.438;11.098;2023-12-07T08:26:24;19.30;52.80
38237;DHT22;50101;49.438;11.098;2023-12-07T08:28:51;19.40;53.00
38237;DHT22;50101;49.438;11.098;2023-12-07T08:31:20;19.40;53.00
38237;DHT22;50101;49.438;11.098;2023-12-07T08:33:51;19.40;53.00
38237;DHT22;50101;49.438;11.098;2023-12-07T08:36:18;19.40;53.00
38237;DHT22;50101;49.438;11.098;2023-12-07T08:38:45;19.40;53.00
38237;DHT22;50101;49.438;11.098;2023-12-07T08:41:12;19.40;53.00
38237;DHT22;50101;49.438;11.098;2023-12-07T08:43:40;19.50;53.00
38237;DHT22;50101;49.438;11.098;2023-12-07T08:46:07;19.40;53.00
38237;DHT22;50101;49.438;11.098;2023-12-07T08:48:36;19.40;53.00
38237;DHT22;50101;49.438;11.098;2023-12-07T08:51:08;19.50;53.20
38237;DHT22;50101;49.438;11.098;2023-12-07T08:53:35;19.50;53.10
38237;DHT22;50101;49.438;11.098;2023-12-07T08:56:02;19.40;53.10
38237;DHT22;50101;49.438;11.098;2023-12-07T08:58:29;19.40;53.00
38237;DHT22;50101;49.438;11.098;2023-12-07T09:00:56;19.50;52.90
38237;DHT22;50101;49.438;11.098;2023-12-07T09:03:23;19.50;52.80
38237;DHT22;50101;49.438;11.098;2023-12-07T09:05:58;19.50;52.70
38237;DHT22;50101;49.438;11.098;2023-12-07T09:08:25;19.50;52.60
38237;DHT22;50101;49.438;11.098;2023-12-07T09:10:52;19.50;52.60
38237;DHT22;50101;49.438;11.098;2023-12-07T09:13:19;19.50;52.50
38237;DHT22;50101;49.438;11.098;2023-12-07T09:15:45;19.50;52.50
38237;DHT22;50101;49.438;11.098;2023-12-07T09:18:12;19.50;52.70
38237;DHT22;50101;49.438;11.098;2023-12-07T09:20:39;19.50;53.10
38237;DHT22;50101;49.438;11.098;2023-12-07T09:23:12;19.50;53.10
38237;DHT22;50101;49.438;11.098;2023-12-07T09:25:39;19.50;53.10
38237;DHT22;50101;49.438;11.098;2023-12-07T09:28:07;19.50;53.10
38237;DHT22;50101;49.438;11.098;2023-12-07T09:30:34;19.50;53.20
38237;DHT22;50101;49.438;11.098;2023-12-07T09:33:01;19.50;53.20
38237;DHT22;50101;49.438;11.098;2023-12-07T09:35:31;19.50;53.20
38237;DHT22;50101;49.438;11.098;2023-12-07T09:38:00;19.50;53.20
38237;DHT22;50101;49.438;11.098;2023-12-07T09:40:27;19.50;53.20
38237;DHT22;50101;49.438;11.098;2023-12-07T09:42:55;19.50;53.20
38237;DHT22;50101;49.438;11.098;2023-12-07T09:45:22;19.50;53.20
38237;DHT22;50101;49.438;11.098;2023-12-07T09:47:53;19.50;53.00
38237;DHT22;50101;49.438;11.098;2023-12-07T09:50:22;19.50;53.20
38237;DHT22;50101;49.438;11.098;2023-12-07T09:52:50;19.50;53.10
38237;DHT22;50101;49.438;11.098;2023-12-07T09:55:30;19.50;53.10
38237;DHT22;50101;49.438;11.098;2023-12-07T09:57:57;19.50;52.40
38237;DHT22;50101;49.438;11.098;2023-12-07T10:00:24;19.50;53.20
38237;DHT22;50101;49.438;11.098;2023-12-07T10:02:52;19.60;53.00
38237;DHT22;50101;49.438;11.098;2023-12-07T10:05:21;19.50;52.80
38237;DHT22;50101;49.438;11.098;2023-12-07T10:07:49;19.30;51.90
38237;DHT22;50101;49.438;11.098;2023-12-07T10:10:17;19.20;52.50
38237;DHT22;50101;49.438;11.098;2023-12-07T10:12:47;19.20;52.60
38237;DHT22;50101;49.438;11.098;2023-12-07T10:15:15;19.20;52.50
38237;DHT22;50101;49.438;11.098;2023-12-07T10:17:51;19.10;52.40
38237;DHT22;50101;49.438;11.098;2023-12-07T10:20:20;19.20;52.50
38237;DHT22;50101;49.438;11.098;2023-12-07T10:23:10;19.20;52.60
38237;DHT22;50101;49.438;11.098;2023-12-07T10:25:42;19.20;52.70
38237;DHT22;50101;49.438;11.098;2023-12-07T10:28:10;19.20;52.70
38237;DHT22;50101;49.438;11.098;2023-12-07T10:30:40;19.20;52.90
38237;DHT22;50101;49.438;11.098;2023-12-07T10:33:10;19.20;53.00
38237;DHT22;50101;49.438;11.098;2023-12-07T10:35:40;19.20;53.00
38237;DHT22;50101;49.438;11.098;2023-12-07T10:38:11;19.10;52.80
38237;DHT22;50101;49.438;11.098;2023-12-07T10:40:39;19.20;53.00
38237;DHT22;50101;49.438;11.098;2023-12-07T10:43:07;19.20;52.90
38237;DHT22;50101;49.438;11.098;2023-12-07T10:45:35;19.20;53.00
38237;DHT22;50101;49.438;11.098;2023-12-07T10:48:05;19.20;53.00
38237;DHT22;50101;49.438;11.098;2023-12-07T10:50:35;19.20;53.10
38237;DHT22;50101;49.438;11.098;2023-12-07T10:53:48;19.20;53.20
38237;DHT22;50101;49.438;11.098;2023-12-07T10:56:00;19.20;53.20
38237;DHT22;50101;49.438;11.098;2023-12-07T10:58:27;19.30;53.00
38237;DHT22;50101;49.438;11.098;2023-12-07T11:00:55;19.30;52.70
38237;DHT22;50101;49.438;11.098;2023-12-07T11:03:24;19.40;52.90
38237;DHT22;50101;49.438;11.098;2023-12-07T11:05:51;19.40;52.90
38237;DHT22;50101;49.438;11.098;2023-12-07T11:11:24;19.50;52.60
38237;DHT22;50101;49.438;11.098;2023-12-07T11:14:05;19.50;52.60
38237;DHT22;50101;49.438;11.098;2023-12-07T11:16:34;19.60;53.00
38237;DHT22;50101;49.438;11.098;2023-12-07T11:19:02;19.50;53.40
38237;DHT22;50101;49.438;11.098;2023-12-07T11:21:31;19.50;53.50
38237;DHT22;50101;49.438;11.098;2023-12-07T11:24:01;19.50;53.60
38237;DHT22;50101;49.438;11.098;2023-12-07T11:26:31;19.50;53.20
38237;DHT22;50101;49.438;11.098;2023-12-07T11:28:57;19.50;53.30
38237;DHT22;50101;49.438;11.098;2023-12-07T11:31:25;19.50;53.30
38237;DHT22;50101;49.438;11.098;2023-12-07T11:33:53;19.50;53.30
38237;DHT22;50101;49.438;11.098;2023-12-07T11:36:20;19.50;53.20
38237;DHT22;50101;49.438;11.098;2023-12-07T11:41:44;19.30;53.40
38237;DHT22;50101;49.438;11.098;2023-12-07T11:44:11;19.30;53.10
38237;DHT22;50101;49.438;11.098;2023-12-07T11:46:38;19.40;53.20
38237;DHT22;50101;49.438;11.098;2023-12-07T11:49:06;19.30;52.90
38237;DHT22;50101;49.438;11.098;2023-12-07T11:51:53;19.30;53.40
38237;DHT22;50101;49.438;11.098;2023-12-07T11:54:22;19.30;53.20
38237;DHT22;50101;49.438;11.098;2023-12-07T11:56:55;19.40;53.40
38237;DHT22;50101;49.438;11.098;2023-12-07T11:59:23;19.30;53.40
38237;DHT22;50101;49.438;11.098;2023-12-07T12:02:00;19.30;53.40
38237;DHT22;50101;49.438;11.098;2023-12-07T12:04:29;19.30;53.40
38237;DHT22;50101;49.438;11.098;2023-12-07T12:06:56;19.40;53.40
38237;DHT22;50101;49.438;11.098;2023-12-07T12:09:26;19.30;53.40
38237;DHT22;50101;49.438;11.098;2023-12-07T12:11:59;19.30;53.30
38237;DHT22;50101;49.438;11.098;2023-12-07T12:14:28;19.30;53.30
38237;DHT22;50101;49.438;11.098;2023-12-07T12:16:56;19.30;53.30
38237;DHT22;50101;49.438;11.098;2023-12-07T12:19:23;19.30;53.30
38237;DHT22;50101;49.438;11.098;2023-12-07T12:22:03;19.30;53.30
38237;DHT22;50101;49.438;11.098;2023-12-07T12:24:37;19.30;53.40
38237;DHT22;50101;49.438;11.098;2023-12-07T12:27:06;19.30;53.40
38237;DHT22;50101;49.438;11.098;2023-12-07T12:29:33;19.30;53.40
38237;DHT22;50101;49.438;11.098;2023-12-07T12:32:02;19.30;53.40
38237;DHT22;50101;49.438;11.098;2023-12-07T12:34:32;19.30;53.40
38237;DHT22;50101;49.438;11.098;2023-12-07T12:36:59;19.30;53.40
38237;DHT22;50101;49.438;11.098;2023-12-07T12:39:29;19.40;53.50
38237;DHT22;50101;49.438;11.098;2023-12-07T12:42:00;19.40;53.40
38237;DHT22;50101;49.438;11.098;2023-12-07T12:44:27;19.30;53.20
38237;DHT22;50101;49.438;11.098;2023-12-07T12:47:05;19.30;53.30
38237;DHT22;50101;49.438;11.098;2023-12-07T12:49:36;19.30;53.20
38237;DHT22;50101;49.438;11.098;2023-12-07T12:52:03;19.40;53.10
38237;DHT22;50101;49.438;11.098;2023-12-07T12:54:31;19.50;53.20
38237;DHT22;50101;49.438;11.098;2023-12-07T12:57:02;19.50;53.20
38237;DHT22;50101;49.438;11.098;2023-12-07T12:59:29;19.40;53.10
38237;DHT22;50101;49.438;11.098;2023-12-07T13:01:55;19.40;53.10
38237;DHT22;50101;49.438;11.098;2023-12-07T13:04:23;19.40;53.10
38237;DHT22;50101;49.438;11.098;2023-12-07T13:06:52;19.40;53.10
38237;DHT22;50101;49.438;11.098;2023-12-07T13:09:18;19.50;53.20
38237;DHT22;50101;49.438;11.098;2023-12-07T13:11:47;19.50;53.10
38237;DHT22;50101;49.438;11.098;2023-12-07T13:14:15;19.50;53.20
38237;DHT22;50101;49.438;11.098;2023-12-07T13:16:45;19.50;53.20
38237;DHT22;50101;49.438;11.098;2023-12-07T13:19:12;19.50;53.50
38237;DHT22;50101;49.438;11.098;2023-12-07T13:21:39;19.50;53.60
38237;DHT22;50101;49.438;11.098;2023-12-07T13:24:06;19.50;53.70
38237;DHT22;50101;49.438;11.098;2023-12-07T13:26:37;19.60;53.50
38237;DHT22;50101;49.438;11.098;2023-12-07T13:29:03;19.50;52.70
38237;DHT22;50101;49.438;11.098;2023-12-07T13:31:30;19.50;53.30
38237;DHT22;50101;49.438;11.098;2023-12-07T13:33:57;19.60;53.20
38237;DHT22;50101;49.438;11.098;2023-12-07T13:36:30;19.60;53.30
38237;DHT22;50101;49.438;11.098;2023-12-07T13:38:58;19.70;54.00
38237;DHT22;50101;49.438;11.098;2023-12-07T13:41:24;19.80;53.40
38237;DHT22;50101;49.438;11.098;2023-12-07T13:43:51;19.80;53.40
38237;DHT22;50101;49.438;11.098;2023-12-07T13:46:18;19.80;53.40
38237;DHT22;50101;49.438;11.098;2023-12-07T13:48:45;19.80;53.40
38237;DHT22;50101;49.438;11.098;2023-12-07T13:51:13;19.80;53.40
38237;DHT22;50101;49.438;11.098;2023-12-07T13:53:40;19.90;53.50
38237;DHT22;50101;49.438;11.098;2023-12-07T13:56:07;19.90;53.50
38237;DHT22;50101;49.438;11.098;2023-12-07T13:58:37;19.90;53.30
38237;DHT22;50101;49.438;11.098;2023-12-07T14:01:05;20.00;53.30
38237;DHT22;50101;49.438;11.098;2023-12-07T14:03:32;19.90;53.00
38237;DHT22;50101;49.438;11.098;2023-12-07T14:05:59;19.90;52.90
38237;DHT22;50101;49.438;11.098;2023-12-07T14:08:27;19.90;52.90
38237;DHT22;50101;49.438;11.098;2023-12-07T14:10:53;19.80;52.80
38237;DHT22;50101;49.438;11.098;2023-12-07T14:13:20;19.80;52.80
38237;DHT22;50101;49.438;11.098;2023-12-07T14:15:47;19.70;52.70
38237;DHT22;50101;49.438;11.098;2023-12-07T14:18:14;19.70;52.70
38237;DHT22;50101;49.438;11.098;2023-12-07T14:20:41;19.70;52.60
38237;DHT22;50101;49.438;11.098;2023-12-07T14:23:31;19.70;52.60
38237;DHT22;50101;49.438;11.098;2023-12-07T14:25:58;19.70;52.60
38237;DHT22;50101;49.438;11.098;2023-12-07T14:28:29;19.70;52.70
38237;DHT22;50101;49.438;11.098;2023-12-07T14:30:57;19.70;52.60
38237;DHT22;50101;49.438;11.098;2023-12-07T14:33:25;19.70;52.60
38237;DHT22;50101;49.438;11.098;2023-12-07T14:35:52;19.70;52.70
38237;DHT22;50101;49.438;11.098;2023-12-07T14:38:19;19.70;52.60
38237;DHT22;50101;49.438;11.098;2023-12-07T14:40:46;19.70;52.60
38237;DHT22;50101;49.438;11.098;2023-12-07T14:43:12;19.60;52.60
38237;DHT22;50101;49.438;11.098;2023-12-07T14:45:39;19.60;52.60
38237;DHT22;50101;49.438;11.098;2023-12-07T14:48:06;19.60;52.60
38237;DHT22;50101;49.438;11.098;2023-12-07T14:50:33;19.60;52.60
38237;DHT22;50101;49.438;11.098;2023-12-07T14:52:59;19.60;52.50
38237;DHT22;50101;49.438;11.098;2023-12-07T14:55:26;19.60;52.30
38237;DHT22;50101;49.438;11.098;2023-12-07T14:57:53;19.60;51.90
38237;DHT22;50101;49.438;11.098;2023-12-07T15:00:20;19.60;52.40
38237;DHT22;50101;49.438;11.098;2023-12-07T15:02:47;19.60;52.30
38237;DHT22;50101;49.438;11.098;2023-12-07T15:05:13;19.60;52.40
38237;DHT22;50101;49.438;11.098;2023-12-07T15:07:40;19.60;52.50
38237;DHT22;50101;49.438;11.098;2023-12-07T15:10:07;19.60;52.50
38237;DHT22;50101;49.438;11.098;2023-12-07T15:12:34;19.50;52.40
38237;DHT22;50101;49.438;11.098;2023-12-07T15:15:01;19.50;52.50
38237;DHT22;50101;49.438;11.098;2023-12-07T15:17:29;19.50;52.50
38237;DHT22;50101;49.438;11.098;2023-12-07T15:19:56;19.50;52.60
38237;DHT22;50101;49.438;11.098;2023-12-07T15:22:23;19.50;52.50
38237;DHT22;50101;49.438;11.098;2023-12-07T15:24:50;19.50;52.40
38237;DHT22;50101;49.438;11.098;2023-12-07T15:27:16;19.50;52.40
38237;DHT22;50101;49.438;11.098;2023-12-07T15:29:43;19.50;52.40